Time;durP1;ratioP1;P1;durP2;ratioP2;P2;SDS_P1;SDS_P2;PMS_P1;PMS_P2;Temp;Humidity;BMP_temperature;BMP_pressure;BME280_temperature;BME280_humidity;BME280_pressure;Samples;Min_cycle;Max_cycle;Signal;HPM_P1;HPM_P2
2022/12/25 00:00:00;;;;;;;23.53;14.20;;;;;;;5.99;100.00;98938.70;2281665;78;20982;-81
2022/12/25 00:03:00;;;;;;;23.63;12.97;;;;;;;5.99;100.00;98939.13;2281657;78;21254;-81
2022/12/25 00:06:01;;;;;;;21.20;12.77;;;;;;;5.99;100.00;98945.19;2281704;78;20898;-81
2022/12/25 00:09:01;;;;;;;22.40;13.47;;;;;;;5.99;100.00;98949.48;2281896;78;20969;-82
2022/12/25 00:12:02;;;;;;;30.53;13.80;;;;;;;5.98;100.00;98949.91;2281327;78;21309;-81
2022/12/25 00:15:02;;;;;;;30.13;15.87;;;;;;;5.97;100.00;98953.74;2281826;78;20973;-81
2022/12/25 00:18:02;;;;;;;25.73;15.43;;;;;;;5.95;100.00;98959.29;2282068;78;20961;-80
2022/12/25 00:21:03;;;;;;;27.80;14.57;;;;;;;5.94;100.00;98960.12;2281781;78;20981;-82
2022/12/25 00:24:03;;;;;;;25.47;14.60;;;;;;;5.92;100.00;98961.38;2281824;78;20942;-81
2022/12/25 00:27:04;;;;;;;28.20;14.37;;;;;;;5.91;100.00;98956.14;2282155;78;20922;-82
2022/12/25 00:30:05;;;;;;;30.17;15.27;;;;;;;5.88;100.00;98961.19;2281962;78;20961;-82
2022/12/25 00:33:04;;;;;;;25.60;14.03;;;;;;;5.81;100.00;98965.30;2281934;78;20969;-82
2022/12/25 00:36:05;;;;;;;29.13;15.60;;;;;;;5.75;100.00;98968.98;2281995;78;21009;-81
2022/12/25 00:39:06;;;;;;;29.57;15.50;;;;;;;5.69;100.00;98977.43;2280316;78;21302;-81
2022/12/25 00:42:17;;;;;;;42.23;17.57;;;;;;;5.70;100.00;98979.19;2249581;79;21020;-82
2022/12/25 00:45:18;;;;;;;34.73;16.57;;;;;;;5.74;100.00;98982.76;2249610;79;20935;-82
2022/12/25 00:48:18;;;;;;;34.07;17.30;;;;;;;5.75;100.00;98993.17;2249545;79;20964;-81
2022/12/25 00:51:19;;;;;;;29.77;16.90;;;;;;;5.76;100.00;98994.05;2249801;79;20963;-82
2022/12/25 00:54:19;;;;;;;29.30;14.73;;;;;;;5.80;100.00;98999.80;2249486;79;20963;-81
2022/12/25 00:57:19;;;;;;;28.33;13.93;;;;;;;5.86;100.00;99004.30;2249678;79;20885;-82
2022/12/25 01:00:20;;;;;;;28.33;13.57;;;;;;;5.84;100.00;99007.25;2249411;79;21268;-81
2022/12/25 01:03:20;;;;;;;33.23;14.23;;;;;;;5.84;100.00;99007.25;2249555;79;20959;-81
2022/12/25 01:06:21;;;;;;;27.87;13.73;;;;;;;5.83;100.00;99011.97;2249606;79;20893;-81
2022/12/25 01:12:40;;;;;;;30.40;17.43;;;;;;;5.83;100.00;99021.04;2249502;78;20884;-81
2022/12/25 01:15:40;;;;;;;39.47;18.77;;;;;;;5.83;100.00;99023.21;2249393;79;20924;-81
2022/12/25 01:18:42;;;;;;;37.40;19.40;;;;;;;5.82;100.00;99024.05;2249480;79;21300;-81
2022/12/25 01:21:41;;;;;;;38.57;18.50;;;;;;;5.84;100.00;99032.75;2249389;79;20940;-81
2022/12/25 01:24:42;;;;;;;33.70;18.13;;;;;;;5.85;100.00;99042.28;2249549;79;20912;-81
2022/12/25 01:27:42;;;;;;;38.20;18.23;;;;;;;5.85;100.00;99037.09;2249371;79;21316;-81
2022/12/25 01:30:42;;;;;;;38.10;18.37;;;;;;;5.85;100.00;99046.58;2249410;79;20971;-81
2022/12/25 01:33:42;;;;;;;36.23;18.93;;;;;;;5.83;100.00;99045.64;2249263;79;21019;-81
2022/12/25 01:36:43;;;;;;;31.60;17.00;;;;;;;5.86;100.00;99047.92;2249358;79;20920;-81
2022/12/25 01:39:43;;;;;;;32.23;17.20;;;;;;;5.84;100.00;99053.47;2249189;77;20944;-82
2022/12/25 01:42:44;;;;;;;31.27;16.67;;;;;;;5.83;100.00;99053.42;2249284;79;20912;-81
2022/12/25 01:45:46;;;;;;;35.40;18.60;;;;;;;5.79;100.00;99061.91;2249415;79;20967;-81
2022/12/25 01:48:44;;;;;;;39.83;19.30;;;;;;;5.72;100.00;99065.59;2249361;79;21308;-81
2022/12/25 01:51:45;;;;;;;39.97;19.97;;;;;;;5.71;100.00;99063.83;2249358;79;20917;-81
2022/12/25 01:54:45;;;;;;;38.63;18.60;;;;;;;5.68;100.00;99057.25;2249567;79;20991;-81
2022/12/25 01:57:46;;;;;;;39.43;20.00;;;;;;;5.68;100.00;99049.48;2249374;79;21279;-81
2022/12/25 02:00:46;;;;;;;34.43;19.43;;;;;;;5.70;100.00;99045.64;2248932;79;20960;-82
2022/12/25 02:03:46;;;;;;;35.83;20.63;;;;;;;5.73;100.00;99046.63;2249319;79;21347;-82
2022/12/25 02:06:47;;;;;;;38.53;20.80;;;;;;;5.76;100.00;99051.91;2249715;79;20924;-82
2022/12/25 02:09:47;;;;;;;35.80;20.63;;;;;;;5.81;100.00;99055.08;2249317;79;21292;-82
2022/12/25 02:12:48;;;;;;;33.90;18.13;;;;;;;5.81;100.00;99054.66;2249259;79;20924;-82
2022/12/25 02:15:48;;;;;;;32.17;17.53;;;;;;;5.83;100.00;99061.19;2249564;79;20952;-82
2022/12/25 02:18:48;;;;;;;27.43;16.53;;;;;;;5.83;100.00;99061.19;2249363;79;20964;-81
2022/12/25 02:21:49;;;;;;;24.60;15.33;;;;;;;5.82;100.00;99068.49;2249293;79;20981;-82
2022/12/25 02:24:49;;;;;;;25.00;15.77;;;;;;;5.83;100.00;99058.60;2249498;79;20928;-81
2022/12/25 02:27:50;;;;;;;30.33;16.77;;;;;;;5.81;100.00;99053.37;2249445;79;20897;-82
2022/12/25 02:30:50;;;;;;;32.37;16.73;;;;;;;5.82;100.00;99060.72;2249270;79;20912;-82
2022/12/25 02:34:03;;;;;;;26.57;17.20;;;;;;;5.77;100.00;99064.45;2249132;79;21018;-82
2022/12/25 02:37:03;;;;;;;26.70;17.70;;;;;;;5.76;100.00;99071.76;2249696;79;20928;-81
2022/12/25 02:40:03;;;;;;;30.67;18.13;;;;;;;5.76;100.00;99070.05;2249239;77;21442;-82
2022/12/25 03:12:55;;;;;;;17.93;10.90;;;;;;;5.86;100.00;99071.24;2249316;78;20980;-81
2022/12/25 03:31:10;;;;;;;20.87;11.70;;;;;;;5.93;100.00;99085.31;2249434;78;20952;-81
2022/12/25 03:32:11;;;;;;;20.17;11.63;;;;;;;5.92;100.00;99086.15;2249142;79;20947;-81
2022/12/25 03:35:24;;;;;;;18.03;11.00;;;;;;;5.92;100.00;99091.33;2249112;79;20983;-81
2022/12/25 03:45:52;;;;;;;21.50;11.43;;;;;;;5.93;100.00;99099.56;2249103;78;21292;-82
2022/12/25 04:37:01;;;;;;;26.67;13.40;;;;;;;5.83;100.00;99135.02;2249569;79;20979;-82
2022/12/25 04:40:02;;;;;;;30.30;13.77;;;;;;;5.84;100.00;99141.55;2250860;77;20988;-82
2022/12/25 04:43:02;;;;;;;31.77;14.23;;;;;;;5.84;100.00;99140.25;2281855;78;21393;-82
2022/12/25 04:46:02;;;;;;;26.17;14.97;;;;;;;5.84;100.00;99141.55;2282037;78;20918;-81
2022/12/25 04:49:03;;;;;;;32.53;15.97;;;;;;;5.82;100.00;99147.50;2282208;78;20922;-82
2022/12/25 04:52:03;;;;;;;28.27;16.30;;;;;;;5.78;100.00;99146.92;2281987;78;20918;-82
2022/12/25 04:55:04;;;;;;;32.63;15.90;;;;;;;5.74;100.00;99152.00;2281947;78;20957;-81
2022/12/25 04:58:04;;;;;;;31.13;16.97;;;;;;;5.74;100.00;99154.59;2281616;78;21346;-82
2022/12/25 05:01:04;;;;;;;32.37;15.63;;;;;;;5.73;100.00;99158.01;2281994;78;20918;-82
2022/12/25 05:04:05;;;;;;;29.40;15.93;;;;;;;5.73;100.00;99158.42;2282129;78;20969;-82
2022/12/25 05:07:05;;;;;;;29.17;16.63;;;;;;;5.73;100.00;99148.95;2282018;78;20970;-82
2022/12/25 05:10:06;;;;;;;35.03;17.73;;;;;;;5.78;100.00;99150.81;2282110;78;21021;-82
2022/12/25 05:13:08;;;;;;;26.80;15.53;;;;;;;5.83;100.00;99147.56;2260275;78;20954;-82
2022/12/25 05:16:08;;;;;;;27.20;14.97;;;;;;;5.88;100.00;99152.91;2282074;78;21333;-82
2022/12/25 05:19:09;;;;;;;27.50;16.53;;;;;;;5.93;100.00;99151.39;2282092;78;20946;-82
2022/12/25 05:22:09;;;;;;;24.97;15.00;;;;;;;5.99;100.00;99150.30;2282248;78;20914;-83
2022/12/25 05:25:09;;;;;;;22.07;14.80;;;;;;;5.99;100.00;99152.48;2281933;78;20981;-83
2022/12/25 05:28:10;;;;;;;29.10;15.40;;;;;;;6.00;100.00;99162.02;2282064;78;20950;-82
2022/12/25 05:31:10;;;;;;;25.13;14.60;;;;;;;5.98;100.00;99162.80;2282046;78;21270;-82
2022/12/25 05:34:11;;;;;;;22.07;14.33;;;;;;;5.95;100.00;99163.98;2282158;78;20914;-83
2022/12/25 05:37:11;;;;;;;26.97;15.37;;;;;;;5.93;100.00;99167.81;2282006;78;20930;-82
2022/12/25 05:40:11;;;;;;;30.23;16.40;;;;;;;5.92;100.00;99172.95;2282190;78;21294;-83
2022/12/25 05:43:12;;;;;;;26.20;15.37;;;;;;;5.95;100.00;99175.64;2291699;78;21458;-82
2022/12/25 05:46:12;;;;;;;31.10;17.50;;;;;;;5.99;100.00;99178.81;2291795;78;20908;-82
2022/12/25 05:49:13;;;;;;;34.53;18.80;;;;;;;5.99;100.00;99184.87;2292114;78;21346;-83
2022/12/25 05:52:13;;;;;;;22.83;10.13;;;;;;;6.00;100.00;99187.93;2292186;78;20913;-84
2022/12/25 05:55:13;;;;;;;29.10;16.37;;;;;;;7.23;100.00;99185.11;2293219;78;21007;-83
2022/12/25 05:58:14;;;;;;;38.13;17.83;;;;;;;10.90;100.00;99171.66;2291289;78;20908;-86
2022/12/25 06:01:14;;;;;;;25.87;15.30;;;;;;;12.69;100.00;99175.67;2291479;78;20948;-81
2022/12/25 06:04:15;;;;;;;21.73;13.43;;;;;;;13.14;96.85;99173.42;2291842;78;20944;-81
2022/12/25 06:07:15;;;;;;;24.83;14.50;;;;;;;11.79;89.54;99190.41;2291879;78;21284;-81
2022/12/25 06:10:15;;;;;;;29.67;15.53;;;;;;;10.59;88.73;99191.59;2291640;78;20940;-81
2022/12/25 06:13:16;;;;;;;22.93;14.03;;;;;;;9.73;88.96;99194.24;2291461;78;21038;-81
2022/12/25 06:16:16;;;;;;;25.30;14.83;;;;;;;9.07;90.16;99208.81;2291660;78;21366;-81
2022/12/25 06:19:17;;;;;;;33.87;14.90;;;;;;;8.60;91.14;99205.90;2291647;78;20919;-80
2022/12/25 06:22:17;;;;;;;27.43;15.57;;;;;;;8.15;92.21;99218.55;2291792;78;20948;-81
2022/12/25 06:25:17;;;;;;;30.03;17.17;;;;;;;7.80;93.46;99226.24;2291639;78;20900;-81
2022/12/25 06:28:18;;;;;;;28.60;17.00;;;;;;;7.50;94.65;99232.69;2291732;78;20888;-81
2022/12/25 06:31:18;;;;;;;30.97;17.30;;;;;;;7.30;95.75;99235.09;2291706;78;21387;-81
2022/12/25 06:34:19;;;;;;;31.63;18.17;;;;;;;7.15;96.76;99242.41;2291676;78;20960;-82
2022/12/25 06:37:19;;;;;;;37.23;18.00;;;;;;;7.02;97.46;99243.31;2291723;78;20937;-81
2022/12/25 06:40:19;;;;;;;28.33;17.37;;;;;;;6.92;97.97;99242.94;2291749;78;20920;-81
2022/12/25 06:43:20;;;;;;;32.80;17.63;;;;;;;6.89;98.64;99254.09;2281607;77;21389;-82
2022/12/25 06:46:20;;;;;;;31.90;18.07;;;;;;;6.86;99.04;99259.19;2281892;78;20941;-82
2022/12/25 06:49:21;;;;;;;30.90;17.23;;;;;;;6.88;99.41;99268.32;2281956;78;20899;-82
2022/12/25 06:52:21;;;;;;;37.47;19.67;;;;;;;6.81;99.65;99278.03;2281936;78;20925;-82
2022/12/25 06:55:21;;;;;;;37.70;20.50;;;;;;;6.71;100.00;99285.50;2281884;78;21021;-82
2022/12/25 06:58:22;;;;;;;39.30;20.67;;;;;;;6.66;100.00;99290.07;2281703;78;20977;-82
2022/12/25 07:01:22;;;;;;;35.23;22.03;;;;;;;6.61;100.00;99298.11;2281847;78;20946;-81
2022/12/25 07:04:23;;;;;;;39.17;22.20;;;;;;;6.57;100.00;99302.72;2281796;78;20918;-81
2022/12/25 07:07:23;;;;;;;46.47;23.77;;;;;;;6.52;100.00;99314.23;2281741;78;20946;-82
2022/12/25 07:10:24;;;;;;;47.13;25.40;;;;;;;6.47;100.00;99323.56;2281414;78;20930;-82
2022/12/25 07:13:24;;;;;;;56.37;31.17;;;;;;;6.47;100.00;99326.16;2281604;78;20962;-81
2022/12/25 07:16:24;;;;;;;56.40;29.47;;;;;;;6.48;100.00;99334.41;2281280;78;21397;-81
2022/12/25 07:19:25;;;;;;;54.67;29.83;;;;;;;6.47;100.00;99337.83;2281559;78;20982;-79
2022/12/25 07:22:25;;;;;;;56.10;27.47;;;;;;;6.48;100.00;99340.00;2281794;78;20914;-81
2022/12/25 07:25:26;;;;;;;46.60;24.03;;;;;;;6.48;100.00;99343.48;2281641;78;20938;-82
2022/12/25 07:28:26;;;;;;;41.63;22.97;;;;;;;6.47;100.00;99356.39;2281794;78;20982;-82
2022/12/25 07:31:26;;;;;;;39.53;21.50;;;;;;;6.44;100.00;99366.66;2281888;78;20950;-82
2022/12/25 07:34:27;;;;;;;37.00;21.70;;;;;;;6.42;100.00;99361.83;2281483;78;21020;-82
2022/12/25 07:37:27;;;;;;;40.83;23.00;;;;;;;6.42;100.00;99361.83;2281561;78;20954;-82
2022/12/25 07:40:27;;;;;;;47.83;23.10;;;;;;;6.46;100.00;99371.48;2281784;78;20902;-82
2022/12/25 07:43:28;;;;;;;43.13;22.33;;;;;;;6.47;100.00;99370.66;2290576;77;21073;-82
2022/12/25 07:46:28;;;;;;;43.50;23.77;;;;;;;6.48;100.00;99376.31;2291420;78;20955;-81
2022/12/25 07:49:29;;;;;;;37.47;22.67;;;;;;;6.46;100.00;99375.37;2291477;78;20948;-82
2022/12/25 07:52:29;;;;;;;47.10;23.97;;;;;;;6.46;100.00;99377.97;2291543;78;20916;-82
2022/12/25 07:55:29;;;;;;;47.47;23.23;;;;;;;6.47;100.00;99379.32;2291204;78;21027;-82
2022/12/25 07:58:30;;;;;;;52.13;23.97;;;;;;;6.50;100.00;99393.70;2291638;78;20971;-80
2022/12/25 08:01:30;;;;;;;45.87;24.60;;;;;;;6.49;100.00;99392.34;2291354;78;21344;-81
2022/12/25 08:04:31;;;;;;;47.63;23.20;;;;;;;6.46;100.00;99401.31;2291715;78;20932;-81
2022/12/25 08:07:31;;;;;;;45.10;23.20;;;;;;;6.46;100.00;99400.89;2291569;78;20907;-81
2022/12/25 08:10:31;;;;;;;42.07;22.20;;;;;;;6.46;100.00;99403.48;2291765;78;20975;-81
2022/12/25 08:13:32;;;;;;;50.27;24.63;;;;;;;6.45;100.00;99399.54;2291309;78;21015;-82
2022/12/25 08:16:32;;;;;;;51.17;24.23;;;;;;;6.46;100.00;99400.02;2291676;78;20983;-82
2022/12/25 08:19:33;;;;;;;59.63;27.63;;;;;;;6.49;100.00;99394.52;2291625;78;20966;-82
2022/12/25 08:22:33;;;;;;;57.43;26.20;;;;;;;6.54;100.00;99397.28;2291592;78;21280;-82
2022/12/25 08:25:33;;;;;;;48.03;23.77;;;;;;;6.52;100.00;99403.71;2292004;78;20992;-81
2022/12/25 08:28:34;;;;;;;41.73;22.23;;;;;;;6.52;100.00;99391.16;2292111;78;20929;-82
2022/12/25 08:31:34;;;;;;;57.63;26.77;;;;;;;6.53;100.00;99387.33;2291734;78;20944;-82
2022/12/25 08:34:35;;;;;;;38.07;22.53;;;;;;;6.60;100.00;99390.61;2291923;78;20971;-82
2022/12/25 08:37:35;;;;;;;40.40;23.23;;;;;;;6.63;100.00;99391.13;2292069;78;20906;-82
2022/12/25 08:40:35;;;;;;;46.57;23.00;;;;;;;6.62;100.00;99392.84;2291937;78;20939;-82
2022/12/25 08:43:36;;;;;;;48.03;26.43;;;;;;;6.61;100.00;99378.52;2291482;77;20983;-82
2022/12/25 08:46:38;;;;;;;50.17;24.53;;;;;;;6.68;100.00;99371.42;2291976;78;20932;-82
2022/12/25 08:49:37;;;;;;;50.33;26.93;;;;;;;6.81;100.00;99377.52;2291979;78;20972;-84
2022/12/25 08:52:37;;;;;;;48.30;26.30;;;;;;;6.87;100.00;99369.94;2292076;78;21301;-83
2022/12/25 08:55:40;;;;;;;50.13;28.20;;;;;;;6.95;100.00;99375.02;2292159;78;20937;-82
2022/12/25 08:58:41;;;;;;;43.53;22.43;;;;;;;6.98;100.00;99378.13;2291967;78;20920;-82
2022/12/25 09:01:41;;;;;;;46.50;27.57;;;;;;;7.05;100.00;99379.22;2292558;78;20928;-82
2022/12/25 09:04:41;;;;;;;46.03;23.63;;;;;;;7.07;100.00;99383.64;2291736;78;21343;-82
2022/12/25 09:07:42;;;;;;;41.00;20.63;;;;;;;7.16;100.00;99389.55;2291804;78;20896;-83
2022/12/25 09:10:42;;;;;;;32.20;17.23;;;;;;;7.25;100.00;99393.77;2292018;78;20956;-82
2022/12/25 09:13:43;;;;;;;33.43;17.67;;;;;;;7.31;100.00;99397.45;2291799;78;20972;-83
2022/12/25 09:16:43;;;;;;;32.23;17.43;;;;;;;7.33;100.00;99405.29;2292122;78;21296;-82
2022/12/25 09:19:44;;;;;;;35.97;21.00;;;;;;;7.33;100.00;99401.39;2291703;78;20999;-82
2022/12/25 09:22:44;;;;;;;37.90;21.63;;;;;;;7.37;100.00;99403.26;2291860;78;20909;-81
2022/12/25 09:25:44;;;;;;;38.60;22.10;;;;;;;7.42;100.00;99400.40;2291765;78;21328;-82
2022/12/25 09:28:46;;;;;;;41.83;24.13;;;;;;;7.44;100.00;99402.62;2291862;78;20909;-83
2022/12/25 09:31:46;;;;;;;45.50;24.10;;;;;;;7.51;100.00;99408.49;2291551;78;20951;-83
2022/12/25 09:34:46;;;;;;;40.87;22.77;;;;;;;7.56;100.00;99415.14;2291776;78;21375;-83
2022/12/25 09:37:47;;;;;;;34.77;20.10;;;;;;;7.58;100.00;99416.07;2292225;78;20914;-82
2022/12/25 09:40:47;;;;;;;35.90;20.90;;;;;;;7.50;100.00;99417.53;2291534;78;20925;-82
2022/12/25 09:43:47;;;;;;;36.47;18.90;;;;;;;7.52;100.00;99415.45;2290631;78;20955;-83
2022/12/25 09:46:48;;;;;;;37.73;21.80;;;;;;;7.55;100.00;99423.34;2290566;78;20940;-83
2022/12/25 09:49:48;;;;;;;50.73;25.60;;;;;;;7.56;100.00;99417.31;2291306;78;20964;-83
2022/12/25 09:52:49;;;;;;;36.27;20.97;;;;;;;7.64;100.00;99421.47;2290853;78;21031;-82
2022/12/25 09:55:49;;;;;;;46.07;24.43;;;;;;;7.57;100.00;99416.91;2291354;78;20983;-83
2022/12/25 09:58:49;;;;;;;47.63;23.57;;;;;;;7.52;100.00;99425.84;2291703;78;20999;-83
2022/12/25 10:01:50;;;;;;;43.80;22.10;;;;;;;7.47;100.00;99417.02;2291535;78;20991;-82
2022/12/25 10:04:50;;;;;;;43.63;23.77;;;;;;;7.50;100.00;99416.23;2291880;78;20935;-82
2022/12/25 10:07:51;;;;;;;46.40;26.00;;;;;;;7.58;100.00;99409.58;2291680;78;21276;-82
2022/12/25 10:10:51;;;;;;;51.40;28.37;;;;;;;7.66;100.00;99415.91;2291646;78;20930;-82
2022/12/25 10:13:51;;;;;;;43.00;23.27;;;;;;;7.71;100.00;99418.65;2291563;78;21023;-82
2022/12/25 10:16:52;;;;;;;46.50;24.40;;;;;;;7.67;100.00;99418.97;2291178;78;20975;-81
2022/12/25 10:19:52;;;;;;;35.17;20.50;;;;;;;7.62;100.00;99418.81;2291563;78;20932;-82
2022/12/25 10:22:53;;;;;;;41.77;23.60;;;;;;;7.61;100.00;99425.27;2291558;78;20948;-81
2022/12/25 10:25:54;;;;;;;29.27;16.20;;;;;;;7.59;100.00;99421.73;2291813;78;20955;-81
2022/12/25 10:28:53;;;;;;;29.10;14.17;;;;;;;7.61;99.55;99417.05;2291645;78;20920;-83
2022/12/25 10:31:55;;;;;;;23.00;15.50;;;;;;;7.65;99.51;99415.44;2291613;78;20936;-80
2022/12/25 10:34:54;;;;;;;24.20;13.43;;;;;;;7.75;99.98;99416.61;2291662;78;20963;-83
2022/12/25 10:37:55;;;;;;;19.97;11.23;;;;;;;7.88;99.70;99413.61;2291887;78;20963;-82
2022/12/25 10:40:55;;;;;;;25.00;13.03;;;;;;;7.91;96.70;99409.80;2291629;78;20937;-81
2022/12/25 10:43:56;;;;;;;27.33;13.83;;;;;;;7.80;97.46;99403.34;2282613;78;21058;-82
2022/12/25 10:46:56;;;;;;;32.13;15.47;;;;;;;7.83;98.11;99400.46;2282068;78;20903;-82
2022/12/25 10:49:56;;;;;;;26.40;12.13;;;;;;;7.96;98.27;99397.83;2281761;78;21298;-82
2022/12/25 10:52:57;;;;;;;21.53;12.53;;;;;;;8.05;97.65;99399.41;2281982;78;20915;-82
2022/12/25 10:55:57;;;;;;;17.97;10.53;;;;;;;8.09;97.43;99394.77;2281431;78;20990;-81
2022/12/25 10:58:58;;;;;;;21.90;10.10;;;;;;;8.12;95.73;99390.95;2281888;78;20943;-81
2022/12/25 11:01:58;;;;;;;22.20;12.03;;;;;;;8.12;95.64;99388.36;2281850;78;21329;-82
2022/12/25 11:05:00;;;;;;;24.27;12.67;;;;;;;8.14;95.85;99391.89;2281811;78;20946;-83
2022/12/25 11:07:59;;;;;;;26.53;14.13;;;;;;;8.26;96.48;99395.27;2281797;78;20930;-81
2022/12/25 11:11:04;;;;;;;26.00;13.00;;;;;;;8.42;96.09;99400.54;2281676;78;20946;-81
2022/12/25 11:14:00;;;;;;;27.03;14.23;;;;;;;8.50;95.67;99384.31;2281666;78;20969;-81
2022/12/25 11:17:00;;;;;;;20.93;9.63;;;;;;;8.61;96.08;99381.59;2281753;78;21385;-81
2022/12/25 11:20:00;;;;;;;17.67;7.10;;;;;;;8.65;94.56;99379.08;2281731;77;20976;-81
2022/12/25 11:23:01;;;;;;;16.23;7.17;;;;;;;8.69;94.11;99381.84;2281622;77;20926;-81
2022/12/25 11:26:01;;;;;;;18.57;7.97;;;;;;;8.71;93.63;99382.77;2281684;78;20957;-81
2022/12/25 11:29:01;;;;;;;14.37;8.13;;;;;;;8.79;93.66;99377.77;2281680;77;20967;-82
2022/12/25 11:32:02;;;;;;;14.10;8.93;;;;;;;8.83;93.05;99376.59;2281745;77;20977;-82
2022/12/25 11:35:02;;;;;;;19.67;9.83;;;;;;;8.78;92.41;99383.39;2281678;77;20930;-82
2022/12/25 11:38:03;;;;;;;17.80;8.40;;;;;;;8.85;92.54;99373.61;2281452;78;20930;-82
2022/12/25 11:41:03;;;;;;;16.80;8.47;;;;;;;8.86;91.82;99372.77;2281601;77;20946;-82
2022/12/25 11:44:03;;;;;;;18.17;9.23;;;;;;;8.85;92.23;99377.52;2281261;77;21449;-81
2022/12/25 11:47:07;;;;;;;19.60;10.70;;;;;;;8.80;91.83;99383.44;2281525;78;20942;-81
2022/12/25 11:50:07;;;;;;;21.73;11.00;;;;;;;8.80;92.13;99375.63;2281562;78;21018;-81
2022/12/25 11:53:07;;;;;;;19.80;9.70;;;;;;;8.75;92.13;99379.83;2281438;78;20902;-81
2022/12/25 11:56:08;;;;;;;17.90;10.83;;;;;;;8.75;92.38;99383.73;2281436;78;20976;-81
2022/12/25 11:59:08;;;;;;;26.33;14.93;;;;;;;8.81;92.97;99376.09;2281202;78;20948;-85
2022/12/25 12:02:08;;;;;;;19.83;9.67;;;;;;;9.56;100.00;99368.08;2280783;78;20930;-85
2022/12/25 12:05:09;;;;;;;17.70;9.30;;;;;;;12.11;100.00;99370.03;2280387;77;20950;-86
2022/12/25 12:08:10;;;;;;;23.05;9.93;;;;;;;13.49;100.00;99371.24;2281041;77;20982;-85
2022/12/25 12:11:16;;;;;;;17.48;9.78;;;;;;;14.63;98.25;99365.45;2281069;77;21294;-85
2022/12/25 12:14:16;;;;;;;19.25;9.55;;;;;;;15.46;95.65;99359.95;2281039;77;20942;-86
2022/12/25 12:17:16;;;;;;;15.35;8.40;;;;;;;16.17;88.95;99360.82;2280961;78;21309;-85
2022/12/25 12:20:17;;;;;;;17.23;8.60;;;;;;;16.62;83.84;99360.27;2280965;77;20922;-84
2022/12/25 12:23:17;;;;;;;17.27;8.55;;;;;;;16.81;82.94;99362.84;2280936;77;20945;-85
2022/12/25 12:26:18;;;;;;;18.07;9.68;;;;;;;17.05;80.87;99370.18;2281037;77;20934;-85
2022/12/25 12:29:18;;;;;;;18.62;10.28;;;;;;;17.25;73.97;99376.66;2280971;77;21330;-85
2022/12/25 12:32:18;;;;;;;21.55;10.15;;;;;;;17.34;77.62;99376.59;2281015;78;20902;-84
2022/12/25 12:35:19;;;;;;;16.12;10.20;;;;;;;17.61;76.49;99378.17;2281411;78;20977;-84
2022/12/25 12:38:19;;;;;;;20.17;10.68;;;;;;;17.64;73.99;99386.95;2281292;78;21374;-84
2022/12/25 12:41:21;;;;;;;23.10;11.83;;;;;;;17.75;72.52;99385.58;2281335;78;20953;-84
2022/12/25 12:44:20;;;;;;;17.85;10.60;;;;;;;17.64;65.84;99387.39;2253176;77;20987;-84
2022/12/25 12:47:20;;;;;;;19.57;12.55;;;;;;;16.06;69.95;99396.83;2249352;79;20940;-84
2022/12/25 12:50:21;;;;;;;22.50;13.53;;;;;;;14.73;68.16;99400.95;2249578;79;21004;-84
2022/12/25 12:53:22;;;;;;;25.82;12.55;;;;;;;14.75;68.30;99393.55;2249288;78;21390;-84
2022/12/25 12:56:22;;;;;;;28.07;16.97;;;;;;;14.98;70.56;99401.52;2249678;79;20936;-84
2022/12/25 12:59:22;;;;;;;31.60;17.02;;;;;;;15.00;65.69;99393.19;2249255;79;20999;-84
2022/12/25 13:02:22;;;;;;;34.40;19.45;;;;;;;13.83;68.99;99399.94;2249192;79;21359;-84
2022/12/25 13:05:23;;;;;;;31.07;16.85;;;;;;;14.34;71.41;99388.05;2249337;79;20935;-84
2022/12/25 13:08:23;;;;;;;34.63;16.77;;;;;;;14.55;69.85;99392.55;2249218;79;20970;-84
2022/12/25 13:11:24;;;;;;;27.90;14.47;;;;;;;15.35;71.49;99377.92;2249359;79;20947;-84
2022/12/25 13:14:24;;;;;;;27.73;14.40;;;;;;;16.23;70.67;99372.66;2249221;79;21042;-83
2022/12/25 13:17:24;;;;;;;27.80;15.72;;;;;;;16.65;68.19;99375.66;2248509;79;20928;-85
2022/12/25 13:20:25;;;;;;;23.95;13.58;;;;;;;17.06;66.79;99380.72;2249277;79;21382;-84
2022/12/25 13:23:27;;;;;;;22.37;12.68;;;;;;;17.33;64.93;99370.44;2249121;79;20920;-85
2022/12/25 13:26:27;;;;;;;22.20;11.88;;;;;;;17.58;63.89;99375.12;2249349;79;20976;-84
2022/12/25 13:29:29;;;;;;;14.38;8.60;;;;;;;17.80;62.53;99369.25;2249331;79;21355;-84
2022/12/25 13:32:28;;;;;;;15.43;9.30;;;;;;;17.91;61.39;99379.71;2249150;79;20952;-84
2022/12/25 13:35:29;;;;;;;18.32;9.50;;;;;;;18.00;61.20;99383.59;2249886;79;21003;-83
2022/12/25 13:38:29;;;;;;;16.87;8.63;;;;;;;18.06;60.13;99387.48;2249567;78;20987;-84
2022/12/25 13:44:48;;;;;;;14.43;8.85;;;;;;;18.17;58.86;99380.33;2285053;77;21024;-83
2022/12/25 13:47:49;;;;;;;18.30;9.15;;;;;;;18.10;58.92;99379.97;2291407;78;20958;-84
2022/12/25 13:50:49;;;;;;;21.57;9.23;;;;;;;18.00;58.74;99371.70;2291318;78;20935;-84
2022/12/25 13:53:49;;;;;;;21.52;9.65;;;;;;;17.89;59.10;99373.12;2291193;78;21344;-84
2022/12/25 13:56:50;;;;;;;15.30;9.83;;;;;;;17.71;59.07;99362.28;2290391;78;20980;-84
2022/12/25 13:59:50;;;;;;;14.13;9.33;;;;;;;17.55;59.62;99370.30;2290567;78;20971;-85
2022/12/25 14:02:51;;;;;;;17.17;9.55;;;;;;;17.53;60.25;99368.13;2290616;78;21308;-84
2022/12/25 14:05:51;;;;;;;15.00;8.80;;;;;;;17.48;61.00;99365.08;2290720;78;21010;-85
2022/12/25 14:08:51;;;;;;;32.23;15.48;;;;;;;17.44;60.63;99370.39;2290457;78;21260;-85
2022/12/25 14:11:52;;;;;;;21.42;10.90;;;;;;;17.45;60.29;99374.78;2290938;78;20951;-84
2022/12/25 14:14:52;;;;;;;19.40;11.08;;;;;;;17.43;59.96;99372.16;2290905;78;20983;-85
2022/12/25 14:17:52;;;;;;;99.35;56.75;;;;;;;17.38;59.86;99380.55;2290793;78;20904;-84
2022/12/25 14:20:53;;;;;;;36.23;19.65;;;;;;;17.37;59.08;99381.88;2290832;78;20967;-84
2022/12/25 14:23:53;;;;;;;17.20;9.70;;;;;;;17.33;59.04;99386.27;2290703;78;21266;-85
2022/12/25 14:26:54;;;;;;;12.95;7.83;;;;;;;17.30;58.88;99384.09;2290843;78;20960;-81
2022/12/25 14:29:54;;;;;;;8.95;6.55;;;;;;;17.22;57.78;99380.62;2291629;78;20908;-81
2022/12/25 14:32:55;;;;;;;13.65;7.85;;;;;;;15.42;55.34;99386.26;2291265;78;21273;-81
2022/12/25 14:35:55;;;;;;;11.22;6.75;;;;;;;13.48;56.93;99396.14;2291475;78;20955;-82
2022/12/25 14:38:57;;;;;;;9.98;6.90;;;;;;;11.90;58.68;99399.81;2266338;78;20928;-81
2022/12/25 14:41:58;;;;;;;10.80;7.28;;;;;;;10.71;61.01;99408.08;2291141;78;20935;-81
2022/12/25 14:44:58;;;;;;;11.15;6.72;;;;;;;9.83;63.16;99408.69;2290858;78;20974;-81
2022/12/25 14:47:58;;;;;;;12.25;7.47;;;;;;;9.20;65.17;99414.02;2281374;78;20926;-81
2022/12/25 14:50:59;;;;;;;10.80;7.27;;;;;;;8.61;66.77;99410.63;2281589;78;20990;-81
2022/12/25 14:53:59;;;;;;;9.10;6.40;;;;;;;8.10;68.21;99425.55;2281583;78;20966;-81
2022/12/25 14:57:00;;;;;;;9.53;6.53;;;;;;;7.62;69.18;99431.81;2281204;77;20966;-81
2022/12/25 15:00:00;;;;;;;7.30;5.50;;;;;;;7.22;70.19;99419.63;2281840;78;20879;-81
2022/12/25 15:03:00;;;;;;;12.27;6.20;;;;;;;6.79;71.45;99398.63;2281700;78;20985;-82
2022/12/25 15:06:01;;;;;;;14.23;7.03;;;;;;;6.41;72.64;99398.95;2281748;77;20933;-81
2022/12/25 15:09:01;;;;;;;8.07;5.47;;;;;;;6.09;74.21;99392.56;2281613;78;20946;-80
2022/12/25 15:12:02;;;;;;;10.77;6.63;;;;;;;5.78;74.49;99393.02;2281729;78;21344;-80
2022/12/25 15:15:02;;;;;;;7.73;5.57;;;;;;;5.53;75.49;99392.05;2281511;77;20998;-81
2022/12/25 15:18:02;;;;;;;8.60;6.10;;;;;;;5.39;76.37;99390.19;2281691;77;20954;-81
2022/12/25 15:21:03;;;;;;;10.10;7.40;;;;;;;5.25;76.73;99386.16;2281789;77;21318;-81
2022/12/25 15:24:03;;;;;;;9.50;6.90;;;;;;;5.15;77.74;99390.86;2280898;77;20945;-81
2022/12/25 15:27:04;;;;;;;8.37;6.30;;;;;;;4.98;78.27;99392.32;2281635;78;21006;-81
2022/12/25 15:30:04;;;;;;;9.73;6.40;;;;;;;4.87;78.94;99410.79;2281781;78;21298;-81
2022/12/25 15:33:05;;;;;;;9.17;6.00;;;;;;;4.75;79.25;99415.02;2281705;77;20938;-81
2022/12/25 15:36:05;;;;;;;9.80;7.23;;;;;;;4.64;79.77;99430.48;2281496;78;20958;-81
2022/12/25 15:39:05;;;;;;;8.40;6.43;;;;;;;4.55;80.21;99454.22;2281764;77;20954;-79